createdAt,value
2022-11-24T00:01:02.023Z,8.00
2022-11-24T00:03:28.682Z,8.10
2022-11-24T00:05:55.337Z,8.00
2022-11-24T00:08:21.979Z,7.90
2022-11-24T00:10:48.595Z,7.80
2022-11-24T00:13:15.251Z,7.80
2022-11-24T00:15:42.060Z,7.70
2022-11-24T00:18:09.246Z,7.60
2022-11-24T00:20:35.968Z,7.60
2022-11-24T00:23:05.067Z,7.60
2022-11-24T00:25:31.743Z,7.70
2022-11-24T00:27:58.546Z,7.80
2022-11-24T00:30:25.238Z,7.90
2022-11-24T00:32:51.853Z,7.90
2022-11-24T00:35:18.559Z,7.90
2022-11-24T00:37:45.427Z,7.90
2022-11-24T00:40:12.105Z,7.90
2022-11-24T00:42:38.972Z,8.00
2022-11-24T00:45:13.610Z,8.10
2022-11-24T00:47:40.936Z,8.10
2022-11-24T00:50:07.595Z,8.10
2022-11-24T00:52:34.257Z,8.10
2022-11-24T00:55:00.865Z,8.40
2022-11-24T00:57:27.494Z,8.20
2022-11-24T00:59:56.596Z,8.30
2022-11-24T01:02:23.353Z,8.20
2022-11-24T01:04:50.036Z,8.30
2022-11-24T01:07:16.674Z,8.30
2022-11-24T01:12:19.024Z,8.30
2022-11-24T01:14:45.861Z,8.30
2022-11-24T01:17:12.672Z,8.30
2022-11-24T01:19:39.524Z,8.20
2022-11-24T01:22:06.353Z,8.20
2022-11-24T01:24:33.541Z,8.20
2022-11-24T01:27:00.886Z,8.10
2022-11-24T01:29:27.675Z,8.00
2022-11-24T01:31:54.440Z,8.00
2022-11-24T01:34:21.178Z,7.80
2022-11-24T01:36:47.911Z,7.80
2022-11-24T01:39:14.614Z,7.80
2022-11-24T01:41:41.491Z,7.60
2022-11-24T01:44:08.353Z,7.50
2022-11-24T01:46:35.142Z,7.40
2022-11-24T01:49:01.934Z,7.30
2022-11-24T01:51:28.822Z,7.10
2022-11-24T01:53:55.513Z,7.10
2022-11-24T01:56:22.364Z,7.00
2022-11-24T01:58:49.191Z,7.00
2022-11-24T02:01:16.261Z,7.00
2022-11-24T02:03:43.497Z,6.90
2022-11-24T02:06:12.799Z,6.80
2022-11-24T02:08:39.784Z,6.80
2022-11-24T02:11:06.689Z,6.90
2022-11-24T02:13:33.537Z,7.20
2022-11-24T02:16:00.334Z,7.10
2022-11-24T02:18:27.318Z,7.00
2022-11-24T02:20:54.300Z,7.00
2022-11-24T02:23:21.039Z,7.00
2022-11-24T02:25:48.056Z,6.90
2022-11-24T02:28:15.550Z,6.90
2022-11-24T02:30:42.608Z,6.80
2022-11-24T02:33:09.454Z,6.70
2022-11-24T02:35:36.318Z,6.80
2022-11-24T02:38:09.314Z,6.70
2022-11-24T02:40:37.962Z,6.70
2022-11-24T02:43:04.947Z,6.80
2022-11-24T02:45:32.144Z,6.90
2022-11-24T02:48:01.151Z,6.90
2022-11-24T02:50:30.125Z,7.00
2022-11-24T02:52:57.253Z,6.90
2022-11-24T02:55:24.126Z,7.10
2022-11-24T02:57:50.879Z,7.10
2022-11-24T03:00:20.223Z,7.30
2022-11-24T03:02:47.237Z,7.20
2022-11-24T03:05:14.199Z,7.40
2022-11-24T03:07:41.053Z,7.40
2022-11-24T03:10:07.907Z,7.20
2022-11-24T03:12:34.799Z,7.40
2022-11-24T03:15:03.529Z,7.50
2022-11-24T03:17:30.216Z,7.50
2022-11-24T03:20:02.962Z,7.60
2022-11-24T03:22:31.294Z,7.40
2022-11-24T03:24:58.131Z,7.50
2022-11-24T03:27:24.929Z,7.30
2022-11-24T03:29:51.951Z,7.50
2022-11-24T03:32:18.883Z,7.40
2022-11-24T03:34:45.755Z,7.30
2022-11-24T03:37:12.659Z,7.20
2022-11-24T03:39:39.394Z,7.20
2022-11-24T03:42:06.098Z,7.00
2022-11-24T03:44:33.146Z,7.00
2022-11-24T03:47:00.047Z,7.10
2022-11-24T03:49:26.762Z,7.20
2022-11-24T03:51:53.467Z,7.10
2022-11-24T03:54:20.106Z,7.30
2022-11-24T03:56:47.679Z,7.40
2022-11-24T03:59:14.414Z,7.30
2022-11-24T04:01:41.143Z,7.20
2022-11-24T04:04:08.003Z,7.10
2022-11-24T04:06:34.687Z,6.90
2022-11-24T04:09:01.315Z,7.00
2022-11-24T04:11:46.859Z,7.00
2022-11-24T04:14:13.981Z,6.90
2022-11-24T04:16:40.737Z,7.00
2022-11-24T04:19:07.510Z,7.30
2022-11-24T04:21:34.163Z,7.20
2022-11-24T04:24:00.908Z,7.20
2022-11-24T04:26:27.742Z,7.10
2022-11-24T04:28:54.611Z,7.00
2022-11-24T04:31:21.432Z,7.00
2022-11-24T04:33:48.091Z,7.10
2022-11-24T04:36:14.791Z,7.00
2022-11-24T04:39:24.376Z,7.10
2022-11-24T04:41:28.163Z,6.90
2022-11-24T04:43:54.946Z,6.70
2022-11-24T04:46:21.605Z,6.70
2022-11-24T04:48:48.354Z,6.50
2022-11-24T04:51:15.392Z,6.40
2022-11-24T04:53:42.134Z,6.30
2022-11-24T04:56:08.805Z,6.30
2022-11-24T04:58:35.505Z,6.20
2022-11-24T05:01:02.156Z,6.20
2022-11-24T05:03:28.846Z,6.30
2022-11-24T05:05:55.551Z,6.30
2022-11-24T05:08:22.306Z,6.40
2022-11-24T05:10:49.092Z,6.40
2022-11-24T05:13:15.762Z,6.40
2022-11-24T05:15:42.560Z,6.40
2022-11-24T05:18:09.240Z,6.30
2022-11-24T05:20:35.950Z,6.20
2022-11-24T05:23:03.016Z,6.20
2022-11-24T05:25:29.743Z,6.30
2022-11-24T05:27:56.400Z,6.20
2022-11-24T05:30:23.126Z,6.10
2022-11-24T05:32:49.780Z,6.10
2022-11-24T05:35:17.045Z,6.20
2022-11-24T05:37:43.730Z,6.20
2022-11-24T05:40:10.627Z,6.30
2022-11-24T05:42:46.123Z,6.30
2022-11-24T05:45:14.488Z,6.30
2022-11-24T05:47:41.258Z,6.30
2022-11-24T05:50:07.950Z,6.20
2022-11-24T05:52:34.662Z,6.30
2022-11-24T05:55:01.295Z,6.20
2022-11-24T05:57:27.925Z,6.30
2022-11-24T05:59:54.651Z,6.30
2022-11-24T06:02:21.472Z,6.20
2022-11-24T06:04:48.178Z,6.20
2022-11-24T06:07:14.947Z,6.20
2022-11-24T06:09:41.718Z,6.30
2022-11-24T06:12:08.374Z,6.20
2022-11-24T06:14:35.468Z,6.20
2022-11-24T06:17:02.761Z,6.20
2022-11-24T06:19:29.493Z,6.30
2022-11-24T06:21:56.103Z,6.40
2022-11-24T06:24:22.868Z,6.30
2022-11-24T06:26:49.605Z,6.40
2022-11-24T06:29:16.275Z,6.30
2022-11-24T06:31:43.036Z,6.40
2022-11-24T06:34:11.578Z,6.30
2022-11-24T06:36:38.328Z,6.30
2022-11-24T06:39:04.980Z,6.70
2022-11-24T06:41:31.732Z,6.60
2022-11-24T06:43:58.463Z,6.70
2022-11-24T06:46:25.204Z,6.60
2022-11-24T06:48:52.738Z,6.40
2022-11-24T06:51:19.510Z,6.40
2022-11-24T06:53:46.200Z,6.30
2022-11-24T06:56:16.311Z,6.20
2022-11-24T06:58:43.942Z,6.20
2022-11-24T07:01:10.675Z,6.10
2022-11-24T07:03:37.389Z,6.00
2022-11-24T07:06:04.231Z,6.00
2022-11-24T07:08:30.957Z,5.90
2022-11-24T07:10:57.615Z,5.90
2022-11-24T07:13:24.439Z,5.90
2022-11-24T07:15:51.115Z,6.00
2022-11-24T07:18:17.862Z,5.80
2022-11-24T07:20:44.580Z,5.90
2022-11-24T07:23:11.287Z,5.90
2022-11-24T07:25:38.252Z,6.00
2022-11-24T07:28:05.631Z,5.90
2022-11-24T07:30:32.353Z,5.90
2022-11-24T07:32:59.027Z,5.80
2022-11-24T07:35:25.728Z,5.80
2022-11-24T07:37:52.573Z,5.80
2022-11-24T07:40:19.425Z,5.80
2022-11-24T07:42:46.127Z,6.00
2022-11-24T07:45:12.885Z,6.00
2022-11-24T07:47:39.655Z,6.00
2022-11-24T07:50:06.368Z,6.10
2022-11-24T07:52:33.091Z,6.10
2022-11-24T07:54:59.733Z,6.20
2022-11-24T07:57:26.516Z,6.20
2022-11-24T07:59:53.302Z,6.30
2022-11-24T08:02:19.993Z,6.30
2022-11-24T08:04:46.669Z,6.30
2022-11-24T08:07:13.591Z,6.30
2022-11-24T08:09:40.556Z,6.30
2022-11-24T08:12:07.215Z,6.30
2022-11-24T08:14:34.211Z,6.30
2022-11-24T08:17:01.183Z,6.40
2022-11-24T08:19:27.964Z,6.60
2022-11-24T08:21:54.955Z,6.70
2022-11-24T08:24:21.715Z,6.70
2022-11-24T08:26:48.402Z,6.70
2022-11-24T08:29:15.100Z,6.90
2022-11-24T08:31:42.022Z,7.00
2022-11-24T08:34:08.783Z,7.10
2022-11-24T08:36:35.576Z,7.20
2022-11-24T08:39:02.199Z,7.40
2022-11-24T08:41:29.112Z,7.50
2022-11-24T08:43:55.848Z,7.50
2022-11-24T08:46:22.741Z,7.50
2022-11-24T08:48:50.215Z,7.50
2022-11-24T08:51:17.065Z,7.60
2022-11-24T08:53:44.141Z,7.60
2022-11-24T08:56:10.818Z,7.60
2022-11-24T08:58:37.596Z,7.70
2022-11-24T09:01:04.422Z,7.80
2022-11-24T09:03:31.362Z,8.00
2022-11-24T09:05:58.478Z,8.00
2022-11-24T09:08:25.189Z,8.10
2022-11-24T09:10:51.837Z,8.10
2022-11-24T09:13:18.527Z,8.20
2022-11-24T09:15:45.148Z,8.20
2022-11-24T09:18:11.861Z,8.30
2022-11-24T09:20:38.485Z,8.40
2022-11-24T09:23:05.244Z,8.50
2022-11-24T09:25:31.891Z,8.60
2022-11-24T09:27:59.999Z,8.60
2022-11-24T09:30:26.735Z,8.70
2022-11-24T09:32:53.430Z,8.70
2022-11-24T09:35:20.159Z,8.80
2022-11-24T09:37:48.350Z,9.00
2022-11-24T09:40:15.103Z,9.10
2022-11-24T09:42:41.929Z,9.10
2022-11-24T09:45:08.719Z,9.40
2022-11-24T09:47:35.374Z,9.40
2022-11-24T09:50:02.045Z,9.40
2022-11-24T09:52:28.707Z,9.40
2022-11-24T09:54:55.420Z,9.40
2022-11-24T09:57:22.088Z,9.60
2022-11-24T09:59:48.782Z,9.50
2022-11-24T10:02:15.436Z,9.40
2022-11-24T10:04:42.122Z,9.40
2022-11-24T10:07:09.022Z,9.50
2022-11-24T10:09:36.076Z,9.60
2022-11-24T10:12:03.514Z,10.00
2022-11-24T10:14:30.166Z,10.00
2022-11-24T10:16:57.092Z,10.20
2022-11-24T10:19:25.647Z,10.50
2022-11-24T10:22:01.326Z,10.50
2022-11-24T10:24:27.969Z,10.60
2022-11-24T10:26:54.705Z,10.60
2022-11-24T10:29:21.958Z,10.80
2022-11-24T10:31:48.695Z,10.70
2022-11-24T10:34:16.778Z,10.80
2022-11-24T10:36:47.399Z,10.70
2022-11-24T10:39:18.408Z,10.70
2022-11-24T10:41:49.855Z,10.60
2022-11-24T10:44:16.916Z,10.60
2022-11-24T10:46:43.748Z,10.60
2022-11-24T10:49:10.520Z,10.70
2022-11-24T10:51:37.708Z,11.00
2022-11-24T10:54:04.336Z,11.00
2022-11-24T10:56:31.095Z,11.20
2022-11-24T10:58:57.995Z,11.30
2022-11-24T11:01:24.723Z,11.40
2022-11-24T11:03:51.549Z,11.50
2022-11-24T11:06:18.244Z,11.50
2022-11-24T11:08:44.859Z,11.60
2022-11-24T11:11:11.486Z,11.70
2022-11-24T11:13:38.231Z,11.80
2022-11-24T11:16:04.936Z,11.90
2022-11-24T11:18:31.642Z,11.90
2022-11-24T11:20:58.356Z,11.90
2022-11-24T11:23:25.304Z,12.00
2022-11-24T11:25:52.030Z,11.80
2022-11-24T11:28:18.953Z,11.80
2022-11-24T11:36:19.171Z,11.90
2022-11-24T11:38:45.937Z,12.00
2022-11-24T11:41:12.627Z,12.00
2022-11-24T11:43:39.948Z,11.90
2022-11-24T11:46:07.062Z,12.00
2022-11-24T11:48:42.850Z,12.10
2022-11-24T11:51:25.889Z,12.20
2022-11-24T11:53:52.708Z,12.30
2022-11-24T11:56:19.393Z,12.30
2022-11-24T11:58:46.012Z,12.40
2022-11-24T12:01:12.858Z,12.40
2022-11-24T12:03:39.828Z,12.50
2022-11-24T12:06:06.539Z,12.60
2022-11-24T12:08:49.472Z,12.60
2022-11-24T12:11:19.892Z,12.60
2022-11-24T12:13:46.558Z,12.60
2022-11-24T12:16:13.231Z,12.50
2022-11-24T12:18:57.119Z,12.60
2022-11-24T12:21:26.594Z,12.50
2022-11-24T12:23:53.633Z,12.50
2022-11-24T12:26:20.505Z,12.50
2022-11-24T12:28:47.558Z,12.50
2022-11-24T12:31:14.250Z,12.40
2022-11-24T12:33:43.975Z,12.60
2022-11-24T12:36:12.934Z,12.60
2022-11-24T12:38:39.625Z,12.70
2022-11-24T12:41:33.576Z,12.70
2022-11-24T12:43:55.934Z,12.90
2022-11-24T12:46:22.604Z,12.80
2022-11-24T12:48:49.299Z,12.90
2022-11-24T12:51:16.085Z,12.90
2022-11-24T12:53:42.724Z,12.80
2022-11-24T12:56:09.504Z,12.90
2022-11-24T12:58:36.207Z,12.90
2022-11-24T13:01:02.859Z,13.00
2022-11-24T13:03:29.488Z,13.00
2022-11-24T13:05:56.189Z,13.00
2022-11-24T13:08:22.835Z,13.00
2022-11-24T13:10:58.062Z,13.00
2022-11-24T13:13:25.091Z,13.00
2022-11-24T13:16:07.123Z,13.00
2022-11-24T13:18:38.471Z,13.10
2022-11-24T13:21:05.139Z,13.10
2022-11-24T13:23:31.811Z,13.10
2022-11-24T13:25:58.589Z,13.00
2022-11-24T13:28:54.003Z,13.00
2022-11-24T13:31:12.260Z,12.90
2022-11-24T13:33:38.971Z,12.90
2022-11-24T13:36:07.827Z,12.90
2022-11-24T13:38:34.572Z,12.90
2022-11-24T13:41:27.010Z,12.90
2022-11-24T13:43:47.867Z,12.80
2022-11-24T13:46:14.553Z,12.90
2022-11-24T13:48:41.244Z,12.70
2022-11-24T13:51:07.908Z,12.80
2022-11-24T13:53:34.616Z,12.80
2022-11-24T13:56:01.358Z,12.70
2022-11-24T13:58:28.096Z,12.70
2022-11-24T14:00:58.366Z,12.70
2022-11-24T14:03:25.340Z,12.70
2022-11-24T14:05:52.245Z,12.70
2022-11-24T14:08:18.963Z,12.70
2022-11-24T14:10:45.644Z,12.60
2022-11-24T14:15:38.871Z,12.60
2022-11-24T14:18:05.601Z,12.50
2022-11-24T14:20:32.260Z,12.60
2022-11-24T14:23:00.787Z,12.60
2022-11-24T14:25:27.479Z,12.50
2022-11-24T14:27:54.127Z,12.50
2022-11-24T14:30:20.889Z,12.40
2022-11-24T14:32:47.608Z,12.40
2022-11-24T14:35:14.386Z,12.50
2022-11-24T14:37:41.085Z,12.40
2022-11-24T14:40:07.736Z,12.40
2022-11-24T14:42:34.434Z,12.50
2022-11-24T14:45:01.210Z,12.60
2022-11-24T14:47:31.457Z,12.60
2022-11-24T14:49:58.922Z,12.50
2022-11-24T14:52:25.628Z,12.60
2022-11-24T14:54:52.244Z,12.50
2022-11-24T14:57:18.874Z,12.50
2022-11-24T14:59:45.505Z,12.50
2022-11-24T15:02:12.260Z,12.50
2022-11-24T15:05:01.447Z,12.40
2022-11-24T15:07:26.052Z,12.60
2022-11-24T15:09:52.948Z,12.60
2022-11-24T15:12:19.549Z,12.70
2022-11-24T15:14:46.256Z,12.60
2022-11-24T15:17:12.928Z,12.70
2022-11-24T15:19:39.566Z,12.70
2022-11-24T15:22:06.141Z,12.60
2022-11-24T15:24:33.059Z,12.60
2022-11-24T15:27:00.433Z,12.70
2022-11-24T15:29:28.580Z,12.70
2022-11-24T15:31:55.202Z,12.70
2022-11-24T15:34:21.992Z,12.80
2022-11-24T15:36:48.633Z,12.70
2022-11-24T15:39:15.268Z,12.70
2022-11-24T15:41:42.363Z,12.80
2022-11-24T15:44:09.080Z,12.70
2022-11-24T15:46:38.347Z,12.80
2022-11-24T15:49:05.223Z,12.80
2022-11-24T15:51:32.054Z,12.80
2022-11-24T15:54:01.182Z,12.70
2022-11-24T15:56:28.295Z,12.70
2022-11-24T15:58:54.998Z,12.80
2022-11-24T16:01:21.723Z,12.70
2022-11-24T16:03:49.261Z,12.70
2022-11-24T16:06:22.173Z,12.70
2022-11-24T16:08:51.009Z,12.60
2022-11-24T16:11:17.832Z,12.40
2022-11-24T16:13:50.072Z,12.20
2022-11-24T16:16:18.929Z,11.90
2022-11-24T16:18:45.634Z,11.80
2022-11-24T16:21:12.240Z,11.60
2022-11-24T16:23:38.923Z,11.50
2022-11-24T16:26:05.726Z,11.40
2022-11-24T16:28:32.372Z,11.30
2022-11-24T16:30:59.058Z,11.10
2022-11-24T16:33:25.734Z,11.00
2022-11-24T16:35:52.430Z,11.00
2022-11-24T16:38:19.033Z,10.90
2022-11-24T16:40:45.623Z,10.90
2022-11-24T16:43:12.420Z,10.90
2022-11-24T16:45:45.023Z,10.80
2022-11-24T16:48:12.036Z,10.80
2022-11-24T16:50:38.635Z,10.70
2022-11-24T16:53:05.308Z,10.70
2022-11-24T16:55:31.939Z,10.60
2022-11-24T16:57:58.633Z,10.50
2022-11-24T17:00:25.231Z,10.50
2022-11-24T17:02:51.895Z,10.40
2022-11-24T17:05:18.677Z,10.40
2022-11-24T17:07:45.409Z,10.30
2022-11-24T17:10:12.190Z,10.30
2022-11-24T17:12:38.997Z,10.20
2022-11-24T17:18:22.512Z,10.20
2022-11-24T17:20:39.026Z,10.20
2022-11-24T17:23:08.656Z,10.20
2022-11-24T17:25:35.362Z,10.30
2022-11-24T17:28:02.055Z,10.30
2022-11-24T17:30:28.675Z,10.20
2022-11-24T17:32:56.959Z,10.20
2022-11-24T17:35:23.800Z,10.20
2022-11-24T17:37:50.424Z,10.20
2022-11-24T17:40:34.272Z,10.20
2022-11-24T17:43:01.115Z,10.20
2022-11-24T17:45:27.840Z,10.10
2022-11-24T17:47:54.470Z,10.20
2022-11-24T17:50:25.440Z,10.20
2022-11-24T17:52:52.866Z,10.10
2022-11-24T17:55:19.578Z,10.10
2022-11-24T17:57:46.230Z,10.10
2022-11-24T18:00:12.844Z,10.10
2022-11-24T18:02:39.519Z,9.90
2022-11-24T18:05:06.132Z,9.90
2022-11-24T18:07:32.750Z,9.80
2022-11-24T18:09:59.409Z,9.80
2022-11-24T18:12:26.054Z,9.80
2022-11-24T18:14:52.701Z,9.70
2022-11-24T18:17:19.333Z,9.70
2022-11-24T18:19:45.953Z,9.60
2022-11-24T18:22:12.634Z,9.70
2022-11-24T18:24:39.598Z,9.70
2022-11-24T18:27:06.351Z,9.60
2022-11-24T18:29:33.022Z,9.70
2022-11-24T18:32:00.043Z,9.60
2022-11-24T18:34:26.837Z,9.60
2022-11-24T18:36:53.485Z,9.60
2022-11-24T18:39:20.282Z,9.60
2022-11-24T18:41:47.187Z,9.50
2022-11-24T18:44:14.149Z,9.60
2022-11-24T18:46:41.082Z,9.70
2022-11-24T18:49:07.819Z,9.60
2022-11-24T18:51:34.557Z,9.50
2022-11-24T18:54:03.259Z,9.50
2022-11-24T18:56:30.446Z,9.50
2022-11-24T18:58:57.314Z,9.30
2022-11-24T19:01:24.400Z,9.30
2022-11-24T19:03:51.271Z,9.30
2022-11-24T19:06:18.274Z,9.20
2022-11-24T19:08:45.258Z,9.20
2022-11-24T19:11:12.008Z,9.20
2022-11-24T19:13:38.942Z,9.20
2022-11-24T19:16:05.816Z,9.20
2022-11-24T19:18:32.518Z,9.10
2022-11-24T19:20:59.229Z,9.00
2022-11-24T19:23:26.256Z,9.10
2022-11-24T19:25:52.998Z,9.10
2022-11-24T19:28:19.756Z,9.20
2022-11-24T19:30:46.480Z,9.20
2022-11-24T19:33:13.117Z,9.20
2022-11-24T19:35:39.708Z,9.20
2022-11-24T19:38:06.382Z,9.10
2022-11-24T19:40:33.120Z,9.20
2022-11-24T19:42:59.879Z,9.10
2022-11-24T19:45:26.670Z,9.00
2022-11-24T19:47:53.368Z,9.10
2022-11-24T19:50:20.090Z,9.20
2022-11-24T19:52:47.967Z,9.20
2022-11-24T19:55:14.892Z,9.20
2022-11-24T19:57:41.493Z,9.30
2022-11-24T20:00:08.643Z,9.30
2022-11-24T20:02:35.423Z,9.30
2022-11-24T20:05:02.180Z,9.30
2022-11-24T20:07:28.849Z,9.50
2022-11-24T20:09:55.580Z,9.40
2022-11-24T20:12:22.170Z,9.30
2022-11-24T20:14:48.823Z,9.30
2022-11-24T20:17:15.714Z,9.20
2022-11-24T20:19:42.415Z,9.20
2022-11-24T20:22:09.212Z,9.20
2022-11-24T20:24:36.102Z,9.40
2022-11-24T20:27:03.273Z,9.50
2022-11-24T20:29:32.222Z,9.60
2022-11-24T20:31:58.897Z,9.60
2022-11-24T20:34:26.438Z,9.40
2022-11-24T20:36:53.256Z,9.40
2022-11-24T20:39:19.993Z,9.40
2022-11-24T20:41:46.763Z,9.40
2022-11-24T20:44:15.113Z,9.30
2022-11-24T20:46:42.061Z,9.40
2022-11-24T20:49:08.709Z,9.40
2022-11-24T20:51:35.432Z,9.40
2022-11-24T20:54:02.189Z,9.20
2022-11-24T20:56:28.869Z,9.20
2022-11-24T20:58:55.455Z,9.10
2022-11-24T21:01:22.158Z,9.10
2022-11-24T21:03:48.846Z,9.10
2022-11-24T21:06:15.519Z,9.00
2022-11-24T21:08:42.146Z,8.90
2022-11-24T21:11:08.944Z,9.00
2022-11-24T21:13:35.683Z,8.80
2022-11-24T21:16:02.392Z,8.80
2022-11-24T21:18:29.076Z,8.70
2022-11-24T21:20:55.760Z,8.70
2022-11-24T21:23:22.454Z,8.60
2022-11-24T21:25:49.089Z,8.50
2022-11-24T21:28:17.249Z,8.60
2022-11-24T21:30:43.953Z,8.60
2022-11-24T21:33:10.647Z,8.50
2022-11-24T21:35:37.272Z,8.50
2022-11-24T21:38:03.936Z,8.40
2022-11-24T21:40:30.662Z,8.40
2022-11-24T21:42:57.391Z,8.30
2022-11-24T21:45:24.047Z,8.30
2022-11-24T21:47:50.727Z,8.20
2022-11-24T21:50:17.435Z,8.20
2022-11-24T21:52:44.070Z,8.20
2022-11-24T21:55:10.787Z,8.10
2022-11-24T21:57:37.448Z,8.00
2022-11-24T22:00:04.065Z,8.00
2022-11-24T22:02:30.733Z,8.00
2022-11-24T22:04:57.427Z,8.10
2022-11-24T22:07:24.171Z,8.00
2022-11-24T22:09:50.921Z,7.90
2022-11-24T22:12:17.548Z,7.90
2022-11-24T22:14:44.368Z,7.90
2022-11-24T22:17:13.411Z,7.80
2022-11-24T22:19:40.066Z,7.80
2022-11-24T22:22:06.664Z,7.80
2022-11-24T22:24:33.285Z,7.70
2022-11-24T22:27:02.829Z,7.80
2022-11-24T22:29:29.478Z,7.90
2022-11-24T22:31:56.339Z,8.00
2022-11-24T22:34:23.112Z,7.90
2022-11-24T22:36:49.798Z,7.90
2022-11-24T22:39:16.459Z,7.80
2022-11-24T22:41:43.133Z,7.80
2022-11-24T22:44:09.821Z,7.70
2022-11-24T22:46:36.492Z,7.60
2022-11-24T22:49:03.076Z,7.60
2022-11-24T22:51:29.723Z,7.80
2022-11-24T22:53:56.435Z,7.70
2022-11-24T22:56:23.133Z,7.60
2022-11-24T22:58:49.844Z,7.80
2022-11-24T23:01:16.472Z,7.70
2022-11-24T23:03:43.123Z,7.70
2022-11-24T23:06:09.734Z,7.70
2022-11-24T23:08:36.424Z,7.90
2022-11-24T23:11:03.106Z,7.80
2022-11-24T23:13:29.762Z,7.80
2022-11-24T23:15:56.435Z,7.60
2022-11-24T23:18:23.155Z,7.70
2022-11-24T23:20:49.769Z,7.70
2022-11-24T23:23:16.403Z,7.60
2022-11-24T23:25:43.038Z,7.70
2022-11-24T23:28:09.672Z,7.60
2022-11-24T23:30:36.302Z,7.60
2022-11-24T23:33:02.954Z,7.70
2022-11-24T23:35:29.589Z,7.60
2022-11-24T23:38:10.807Z,7.60
2022-11-24T23:40:37.493Z,7.60
2022-11-24T23:43:04.165Z,7.60
2022-11-24T23:45:30.819Z,7.70
2022-11-24T23:47:57.508Z,7.60
2022-11-24T23:50:24.188Z,7.80
2022-11-24T23:52:50.845Z,7.90
2022-11-24T23:55:17.534Z,7.80
2022-11-24T23:57:44.162Z,7.90
